createdAt,value
2023-03-11T00:00:10.096Z,66358.84
2023-03-11T00:05:37.380Z,66236.63
2023-03-11T00:10:43.701Z,66271.41
2023-03-11T00:15:51.173Z,66304.13
2023-03-11T00:20:56.949Z,66258.28
2023-03-11T00:26:03.237Z,66277.84
2023-03-11T00:31:08.894Z,66296.59
2023-03-11T00:36:23.878Z,66321.22
2023-03-11T00:41:28.263Z,66288.13
2023-03-11T00:46:33.859Z,66229.03
2023-03-11T00:51:38.062Z,66158.81
2023-03-11T00:56:42.752Z,66129.88
2023-03-11T01:01:48.474Z,66135.84
2023-03-11T01:06:52.806Z,66222.16
2023-03-11T01:11:56.971Z,66128.81
2023-03-11T01:17:02.813Z,66180.69
2023-03-11T01:22:07.064Z,66173.28
2023-03-11T01:27:11.791Z,66157.03
2023-03-11T01:32:17.364Z,66132.13
2023-03-11T01:37:21.459Z,66146.56
2023-03-11T01:42:26.106Z,66140.59
2023-03-11T01:47:40.884Z,66114.97
2023-03-11T01:52:47.260Z,66186.16
2023-03-11T01:57:54.379Z,66139.72
2023-03-11T02:03:03.330Z,66092.47
2023-03-11T02:08:08.461Z,66124.69
2023-03-11T02:13:13.687Z,66087.13
2023-03-11T02:18:21.253Z,66070.53
2023-03-11T02:23:31.247Z,66051.78
2023-03-11T02:28:40.882Z,66076.84
2023-03-11T02:33:48.287Z,66079.53
2023-03-11T02:38:52.721Z,66073.72
2023-03-11T02:44:00.253Z,66062.84
2023-03-11T02:49:07.397Z,66098.19
2023-03-11T02:54:11.781Z,66090.78
2023-03-11T02:59:17.705Z,66128.19
2023-03-11T03:04:21.965Z,66119.09
2023-03-11T03:09:26.354Z,66144.88
2023-03-11T03:14:32.466Z,66040.34
2023-03-11T03:19:36.814Z,66049.09
2023-03-11T03:24:41.345Z,66092.28
2023-03-11T03:29:47.108Z,66056.88
2023-03-11T03:34:51.294Z,66072.03
2023-03-11T03:39:56.309Z,66135.25
2023-03-11T03:45:02.062Z,66165.94
2023-03-11T03:50:08.342Z,66092.41
2023-03-11T03:55:13.047Z,66181.16
2023-03-11T04:00:19.911Z,66098.81
2023-03-11T04:05:31.054Z,66102.13
2023-03-11T04:10:35.234Z,66098.81
2023-03-11T04:15:41.690Z,66109.97
2023-03-11T04:20:46.629Z,66034.53
2023-03-11T04:25:52.197Z,66025.97
2023-03-11T04:30:58.156Z,65991.28
2023-03-11T04:36:05.839Z,65925.28
2023-03-11T04:41:11.252Z,65953.56
2023-03-11T04:46:18.938Z,65950.53
2023-03-11T04:51:23.261Z,65920.66
2023-03-11T04:56:27.469Z,66027.31
2023-03-11T05:01:33.270Z,66003.41
2023-03-11T05:06:40.350Z,66056.50
2023-03-11T05:11:45.449Z,65994.94
2023-03-11T05:16:52.533Z,66004.03
2023-03-11T05:21:56.700Z,65950.72
2023-03-11T05:27:02.900Z,65926.47
2023-03-11T05:32:09.442Z,66007.78
2023-03-11T05:37:14.143Z,66024.81
2023-03-11T05:42:20.304Z,65954.78
2023-03-11T05:47:28.557Z,65928.75
2023-03-11T05:52:34.515Z,65915.94
2023-03-11T05:57:38.967Z,65946.16
2023-03-11T06:02:45.131Z,65878.31
2023-03-11T06:07:53.294Z,65881.44
2023-03-11T06:12:59.698Z,65908.25
2023-03-11T06:18:09.149Z,65941.88
2023-03-11T06:23:13.359Z,65997.63
2023-03-11T06:28:17.654Z,66079.53
2023-03-11T06:33:25.944Z,66025.53
2023-03-11T06:38:31.526Z,66000.91
2023-03-11T06:43:36.855Z,65893.19
2023-03-11T06:48:43.823Z,65935.03
2023-03-11T06:53:50.712Z,65868.69
2023-03-11T06:58:56.250Z,65847.31
2023-03-11T07:04:04.625Z,65876.63
2023-03-11T07:09:13.210Z,65840.47
2023-03-11T07:14:20.857Z,65872.97
2023-03-11T07:19:30.995Z,65836.19
2023-03-11T07:24:35.746Z,65810.53
2023-03-11T07:29:40.012Z,65819.63
2023-03-11T07:34:45.492Z,65803.50
2023-03-11T07:39:49.693Z,65793.13
2023-03-11T07:44:54.165Z,65760.53
2023-03-11T07:49:59.650Z,65716.31
2023-03-11T07:55:04.275Z,65708.28
2023-03-11T08:00:09.984Z,65714.16
2023-03-11T08:05:20.879Z,65699.19
2023-03-11T08:10:25.170Z,65665.13
2023-03-11T08:15:29.324Z,65689.34
2023-03-11T08:20:34.850Z,65728.69
2023-03-11T08:25:40.471Z,65721.66
2023-03-11T08:30:44.732Z,65752.63
2023-03-11T08:35:51.100Z,65624.56
2023-03-11T08:40:55.507Z,65605.47
2023-03-11T08:46:02.235Z,65610.09
2023-03-11T08:51:26.515Z,65583.94
2023-03-11T08:56:31.398Z,65644.56
2023-03-11T09:01:35.512Z,65634.09
2023-03-11T09:06:43.461Z,65626.81
2023-03-11T09:11:47.667Z,65563.66
2023-03-11T09:16:51.751Z,65515.78
2023-03-11T09:21:57.382Z,65493.94
2023-03-11T09:27:01.755Z,65492.22
2023-03-11T09:32:06.705Z,65476.25
2023-03-11T09:37:12.292Z,65477.94
2023-03-11T09:42:22.336Z,65482.09
2023-03-11T09:47:38.407Z,65436.81
2023-03-11T09:52:46.226Z,65479.97
2023-03-11T09:57:50.802Z,65477.41
2023-03-11T10:02:55.371Z,65504.06
2023-03-11T10:08:26.273Z,65496.06
2023-03-11T10:13:38.152Z,65533.78
2023-03-11T10:18:51.681Z,65522.72
2023-03-11T10:24:15.416Z,65597.38
2023-03-11T10:29:27.306Z,65531.75
2023-03-11T10:34:39.347Z,65548.31
2023-03-11T10:39:48.856Z,65561.09
2023-03-11T10:44:53.366Z,65490.63
2023-03-11T10:49:57.738Z,65469.94
2023-03-11T10:55:04.554Z,65416.22
2023-03-11T11:00:12.642Z,65452.88
2023-03-11T11:05:30.686Z,65480.16
2023-03-11T11:10:38.117Z,65485.41
2023-03-11T11:15:51.975Z,65459.81
2023-03-11T11:21:03.507Z,65477.31
2023-03-11T11:26:17.852Z,65504.38
2023-03-11T11:31:26.029Z,65499.50
2023-03-11T11:36:34.002Z,65561.00
2023-03-11T11:41:43.595Z,65577.53
2023-03-11T11:46:56.352Z,65457.78
2023-03-11T11:52:07.934Z,65517.38
2023-03-11T11:57:15.958Z,65490.63
2023-03-11T12:02:42.245Z,65499.25
2023-03-11T12:08:00.248Z,65594.16
2023-03-11T12:13:35.650Z,65495.97
2023-03-11T12:18:45.499Z,65400.69
2023-03-11T12:24:01.299Z,65294.63
2023-03-11T12:29:32.181Z,65346.25
2023-03-11T12:35:33.151Z,65360.31
2023-03-11T12:41:33.761Z,65407.06
2023-03-11T12:47:24.344Z,65413.38
2023-03-11T12:53:03.918Z,65404.84
2023-03-11T12:59:00.968Z,65412.31
2023-03-11T13:04:23.424Z,65410.81
2023-03-11T13:09:54.365Z,65419.22
2023-03-11T13:15:58.511Z,65363.41
2023-03-11T13:21:42.407Z,65356.47
2023-03-11T13:27:04.515Z,65333.91
2023-03-11T13:32:35.910Z,65298.47
2023-03-11T13:37:50.999Z,65288.34
2023-03-11T13:43:04.129Z,65285.47
2023-03-11T13:48:16.097Z,65256.44
2023-03-11T13:53:29.336Z,65260.03
2023-03-11T13:58:42.795Z,65232.38
2023-03-11T14:03:50.368Z,65214.50
2023-03-11T14:08:57.145Z,65178.78
2023-03-11T14:14:03.762Z,65162.84
2023-03-11T14:19:16.774Z,65156.97
2023-03-11T14:24:27.020Z,65154.88
2023-03-11T14:29:53.828Z,65147.22
2023-03-11T14:35:04.213Z,65128.72
2023-03-11T14:40:25.478Z,65122.44
2023-03-11T14:45:36.525Z,65121.78
2023-03-11T14:50:40.943Z,65095.66
2023-03-11T14:55:51.324Z,65119.03
2023-03-11T15:01:02.587Z,65108.41
2023-03-11T15:06:10.170Z,65090.66
2023-03-11T15:11:25.629Z,65083.03
2023-03-11T15:16:36.773Z,65085.25
2023-03-11T15:21:47.545Z,65070.38
2023-03-11T15:26:56.557Z,65064.63
2023-03-11T15:32:22.497Z,65073.34
2023-03-11T15:37:26.886Z,65043.81
2023-03-11T15:42:34.142Z,65067.63
2023-03-11T15:47:40.638Z,65051.47
2023-03-11T15:52:45.042Z,65053.81
2023-03-11T15:57:50.402Z,65054.00
2023-03-11T16:02:56.381Z,65064.97
2023-03-11T16:08:00.642Z,65058.06
2023-03-11T16:13:07.969Z,65057.63
2023-03-11T16:18:13.906Z,65049.78
2023-03-11T16:23:21.440Z,65032.13
2023-03-11T16:28:25.991Z,65044.97
2023-03-11T16:33:31.631Z,65053.28
2023-03-11T16:38:44.026Z,65071.75
2023-03-11T16:43:48.910Z,65043.19
2023-03-11T16:49:05.493Z,65028.84
2023-03-11T17:16:12.697Z,65040.63
2023-03-11T17:21:42.473Z,65021.53
2023-03-11T17:26:51.458Z,65024.06
2023-03-11T17:31:57.645Z,65055.28
2023-03-11T17:37:02.239Z,65018.13
2023-03-11T17:42:07.029Z,65048.59
2023-03-11T17:47:20.134Z,65021.28
2023-03-11T17:52:25.342Z,65023.53
2023-03-11T17:57:33.586Z,64993.81
2023-03-11T18:04:09.793Z,64997.00
2023-03-11T18:18:09.862Z,64999.22
2023-03-11T19:02:29.982Z,65025.13
2023-03-11T19:08:21.989Z,65045.31
2023-03-11T19:13:40.760Z,65013.88
2023-03-11T19:18:57.421Z,65027.34
2023-03-11T19:38:55.069Z,64983.28
2023-03-11T19:44:01.679Z,65003.78
2023-03-11T19:49:06.338Z,64975.34
2023-03-11T19:54:32.856Z,64992.63
2023-03-11T19:59:43.214Z,64981.59
2023-03-11T20:04:50.627Z,64942.22
2023-03-11T20:10:03.980Z,64969.94
2023-03-11T20:15:10.229Z,64976.19
2023-03-11T20:20:22.968Z,64977.47
2023-03-11T20:25:48.883Z,64997.53
2023-03-11T20:30:53.596Z,64967.16
2023-03-11T20:36:08.779Z,64966.31
2023-03-11T20:41:15.618Z,64967.78
2023-03-11T20:46:20.810Z,64974.81
2023-03-11T20:51:25.485Z,64965.03
2023-03-11T20:56:32.843Z,64971.41
2023-03-11T21:01:38.256Z,64965.25
2023-03-11T21:06:42.669Z,64978.09
2023-03-11T21:11:48.721Z,64964.63
2023-03-11T21:16:53.365Z,64959.31
2023-03-11T21:21:57.972Z,64967.69
2023-03-11T21:27:03.791Z,64961.97
2023-03-11T21:32:08.158Z,64973.75
2023-03-11T21:37:13.135Z,64962.06
2023-03-11T21:42:29.099Z,64961.44
2023-03-11T21:47:37.327Z,64992.84
2023-03-11T21:52:47.136Z,64981.91
2023-03-11T21:58:01.598Z,64978.84
2023-03-11T22:03:10.582Z,64961.84
2023-03-11T22:08:47.275Z,64943.41
2023-03-11T22:14:13.802Z,64982.13
2023-03-11T22:41:51.174Z,64955.59
2023-03-11T22:46:58.433Z,64943.28
2023-03-11T22:53:01.190Z,64966.22
